Terminal Aerodrome Forecast
Issued by NWS Charleston, WV

Home | Current Version | Previous Version | Text Only | Print | Product List | Glossary On
Versions: 1 2 3 4 5 6 7 8 9 10 11 12 13 14 15 16 17 18 19 20 21 22 23
000
FTUS41 KRLX 040204 AAA
TAFCRW
TAF AMD
KCRW 040204Z 0402/0424 24005KT P6SM SCT050 BKN100
     FM040300 21005KT 5SM SHRA SCT045 OVC080
      TEMPO 0403/0405 3SM TSRA BKN035CB
     FM040500 21005KT 4SM -SHRA BKN030 BKN100
     FM040800 VRB03KT 5SM BR BKN015
     FM041400 26004KT P6SM BKN025
     FM041700 28005KT P6SM SCT030=

USA.gov is the U.S. government's official web portal to all federal, state and local government web resources and services.